Time;durP1;ratioP1;P1;durP2;ratioP2;P2;SDS_P1;SDS_P2;PMS_P1;PMS_P2;Temp;Humidity;BMP_temperature;BMP_pressure;BME280_temperature;BME280_humidity;BME280_pressure;Samples;Min_cycle;Max_cycle;Signal;HPM_P1;HPM_P2
2023/10/21 00:00:06;;;;;;;81.88;21.30;;;;;;;;;;5057753;28;20059;-66
2023/10/21 00:02:35;;;;;;;102.80;21.23;;;;;;;;;;5063204;28;20052;-65
2023/10/21 00:05:02;;;;;;;87.82;20.17;;;;;;;;;;5060236;28;20053;-63
2023/10/21 00:07:29;;;;;;;90.35;20.50;;;;;;;;;;5059113;28;20561;-63
2023/10/21 00:09:58;;;;;;;109.70;22.77;;;;;;;;;;5057021;28;20044;-64
2023/10/21 00:12:26;;;;;;;93.80;21.23;;;;;;;;;;5060011;28;20105;-63
2023/10/21 00:14:53;;;;;;;88.55;21.17;;;;;;;;;;5054322;28;20044;-63
2023/10/21 00:17:20;;;;;;;92.13;20.52;;;;;;;;;;5056740;28;20045;-63
2023/10/21 00:19:50;;;;;;;79.63;19.17;;;;;;;;;;5062592;28;20052;-64
2023/10/21 00:22:17;;;;;;;85.80;19.33;;;;;;;;;;5058390;28;20048;-64
2023/10/21 00:24:44;;;;;;;83.07;19.63;;;;;;;;;;5051580;28;20049;-64
2023/10/21 00:27:12;;;;;;;87.22;20.23;;;;;;;;;;5057712;28;20052;-64
2023/10/21 00:29:39;;;;;;;70.10;19.25;;;;;;;;;;5056306;28;20055;-63
2023/10/21 00:32:06;;;;;;;72.25;19.00;;;;;;;;;;5061239;28;20726;-63
2023/10/21 00:34:38;;;;;;;66.28;17.98;;;;;;;;;;5055791;28;20056;-64
2023/10/21 00:37:07;;;;;;;76.53;19.10;;;;;;;;;;5057295;28;20058;-64
2023/10/21 00:39:35;;;;;;;88.20;18.42;;;;;;;;;;5058250;28;20566;-64
2023/10/21 00:42:02;;;;;;;62.75;17.70;;;;;;;;;;5053005;28;20049;-63
2023/10/21 00:44:29;;;;;;;80.85;19.10;;;;;;;;;;5065332;28;20496;-63
2023/10/21 00:46:59;;;;;;;92.80;19.17;;;;;;;;;;5059731;28;20041;-65
2023/10/21 00:49:26;;;;;;;93.30;18.60;;;;;;;;;;5060360;28;20406;-63
2023/10/21 00:51:54;;;;;;;69.53;17.38;;;;;;;;;;5062041;28;20048;-64
2023/10/21 00:54:23;;;;;;;77.55;17.73;;;;;;;;;;5056822;28;20048;-64
2023/10/21 00:56:51;;;;;;;71.25;16.75;;;;;;;;;;5060582;28;20041;-65
2023/10/21 00:59:18;;;;;;;64.78;16.08;;;;;;;;;;5055709;28;20132;-64
2023/10/21 01:01:46;;;;;;;62.90;17.10;;;;;;;;;;5057658;28;20052;-63
2023/10/21 01:04:14;;;;;;;72.13;16.45;;;;;;;;;;5056282;28;20526;-67
2023/10/21 01:06:41;;;;;;;101.85;18.75;;;;;;;;;;5057569;28;20071;-64
2023/10/21 01:09:10;;;;;;;68.53;16.90;;;;;;;;;;5064276;28;20059;-63
2023/10/21 01:11:38;;;;;;;65.82;16.52;;;;;;;;;;5066699;28;20049;-64
2023/10/21 01:14:09;;;;;;;64.68;15.82;;;;;;;;;;5052865;28;20052;-64
2023/10/21 01:16:36;;;;;;;65.30;16.35;;;;;;;;;;5059633;28;20140;-63
2023/10/21 01:19:03;;;;;;;85.07;16.42;;;;;;;;;;5054835;28;20519;-64
2023/10/21 01:21:30;;;;;;;76.88;16.20;;;;;;;;;;5059205;28;20036;-63
2023/10/21 01:23:59;;;;;;;97.57;16.65;;;;;;;;;;5059612;28;20492;-64
2023/10/21 01:26:26;;;;;;;64.82;15.98;;;;;;;;;;5060831;28;20475;-63
2023/10/21 01:28:53;;;;;;;49.17;14.43;;;;;;;;;;5060946;28;20056;-64
2023/10/21 01:31:21;;;;;;;48.78;14.02;;;;;;;;;;5065324;28;20492;-63
2023/10/21 01:33:48;;;;;;;71.55;15.98;;;;;;;;;;5057479;28;20049;-63
2023/10/21 01:36:17;;;;;;;58.42;14.50;;;;;;;;;;5057957;28;20071;-64
2023/10/21 01:38:44;;;;;;;68.97;14.45;;;;;;;;;;5059827;28;20049;-64
2023/10/21 01:41:12;;;;;;;74.50;15.25;;;;;;;;;;5068227;28;20059;-63
2023/10/21 01:43:41;;;;;;;60.92;14.32;;;;;;;;;;5058967;28;20048;-64
2023/10/21 01:46:08;;;;;;;57.58;13.98;;;;;;;;;;5060507;28;20555;-63
2023/10/21 01:48:35;;;;;;;75.03;13.80;;;;;;;;;;5055166;28;20052;-63
2023/10/21 01:51:04;;;;;;;57.20;13.32;;;;;;;;;;5062080;28;20057;-63
2023/10/21 01:53:32;;;;;;;53.08;12.88;;;;;;;;;;5061002;28;20474;-63
2023/10/21 01:56:03;;;;;;;59.95;13.45;;;;;;;;;;5063866;28;20041;-63
2023/10/21 01:58:32;;;;;;;61.78;13.02;;;;;;;;;;5063881;28;20488;-63
2023/10/21 02:00:59;;;;;;;112.78;14.75;;;;;;;;;;5064076;28;20117;-63
2023/10/21 02:03:27;;;;;;;59.63;13.15;;;;;;;;;;5060651;28;20044;-65
2023/10/21 02:05:55;;;;;;;50.45;12.73;;;;;;;;;;5061615;28;20048;-65
2023/10/21 02:08:22;;;;;;;58.85;13.85;;;;;;;;;;5059085;28;20131;-63
2023/10/21 02:10:49;;;;;;;111.97;15.52;;;;;;;;;;5059348;28;20053;-63
2023/10/21 02:13:17;;;;;;;45.88;12.88;;;;;;;;;;5056541;28;20063;-63
2023/10/21 02:15:45;;;;;;;52.40;13.10;;;;;;;;;;5058815;28;20048;-63
2023/10/21 02:18:12;;;;;;;57.78;13.43;;;;;;;;;;5062689;28;20098;-63
2023/10/21 02:20:40;;;;;;;49.92;12.65;;;;;;;;;;5058890;28;20491;-64
2023/10/21 02:23:07;;;;;;;64.63;14.02;;;;;;;;;;5058483;28;20048;-64
2023/10/21 02:25:34;;;;;;;66.63;13.48;;;;;;;;;;5056799;28;20048;-62
2023/10/21 02:28:02;;;;;;;59.30;13.00;;;;;;;;;;5059824;28;20049;-63
2023/10/21 02:30:29;;;;;;;55.33;12.10;;;;;;;;;;5054623;28;20515;-63
2023/10/21 02:32:58;;;;;;;64.93;12.55;;;;;;;;;;5058733;28;20036;-64
2023/10/21 02:35:25;;;;;;;55.80;11.75;;;;;;;;;;5063283;28;20399;-63
2023/10/21 02:37:53;;;;;;;47.25;11.80;;;;;;;;;;5062659;28;20052;-63
2023/10/21 02:40:20;;;;;;;48.15;12.10;;;;;;;;;;5052387;28;20057;-64
2023/10/21 02:42:47;;;;;;;45.05;11.45;;;;;;;;;;5056046;28;20487;-64
2023/10/21 02:45:15;;;;;;;38.85;10.90;;;;;;;;;;5053989;28;20049;-63
2023/10/21 02:47:42;;;;;;;83.38;12.52;;;;;;;;;;5067951;28;20147;-63
2023/10/21 02:50:11;;;;;;;62.53;12.25;;;;;;;;;;5058012;28;20462;-63
2023/10/21 02:52:38;;;;;;;37.58;11.32;;;;;;;;;;5065548;28;20065;-63
2023/10/21 02:55:06;;;;;;;54.25;11.82;;;;;;;;;;5068821;28;20105;-64
2023/10/21 02:57:34;;;;;;;48.33;12.32;;;;;;;;;;5056829;28;20063;-63
2023/10/21 03:00:01;;;;;;;45.05;11.43;;;;;;;;;;5059018;28;20535;-63
2023/10/21 03:02:28;;;;;;;47.88;12.48;;;;;;;;;;5064509;28;20049;-63
2023/10/21 03:04:56;;;;;;;54.78;11.48;;;;;;;;;;5058959;28;20041;-64
2023/10/21 03:07:24;;;;;;;65.40;11.60;;;;;;;;;;5060327;28;20045;-64
2023/10/21 03:09:51;;;;;;;43.83;10.75;;;;;;;;;;5062175;28;20044;-63
2023/10/21 03:12:19;;;;;;;56.20;10.50;;;;;;;;;;5060420;28;20052;-64
2023/10/21 03:14:46;;;;;;;38.78;10.13;;;;;;;;;;5060402;28;20514;-63
2023/10/21 03:17:15;;;;;;;38.72;9.98;;;;;;;;;;5056518;28;20056;-63
2023/10/21 03:19:42;;;;;;;45.50;10.20;;;;;;;;;;5065241;28;20060;-63
2023/10/21 03:22:09;;;;;;;47.05;10.30;;;;;;;;;;5063711;28;20049;-63
2023/10/21 03:24:38;;;;;;;58.80;11.38;;;;;;;;;;5063122;28;20404;-62
2023/10/21 03:27:06;;;;;;;39.25;9.57;;;;;;;;;;5064870;28;20044;-64
2023/10/21 03:29:32;;;;;;;48.45;10.50;;;;;;;;;;5058681;28;20114;-63
2023/10/21 03:31:59;;;;;;;31.33;9.70;;;;;;;;;;5057676;28;20052;-63
2023/10/21 03:34:27;;;;;;;51.80;10.30;;;;;;;;;;5054387;28;20045;-63
2023/10/21 03:36:54;;;;;;;49.88;9.75;;;;;;;;;;5064144;28;20048;-62
2023/10/21 03:39:22;;;;;;;39.72;9.77;;;;;;;;;;5058621;28;20484;-64
2023/10/21 03:41:50;;;;;;;43.45;10.02;;;;;;;;;;5063475;28;20056;-63
2023/10/21 03:44:17;;;;;;;53.42;10.05;;;;;;;;;;5054316;28;20422;-63
2023/10/21 03:46:45;;;;;;;26.83;9.18;;;;;;;;;;5052502;28;20049;-63
2023/10/21 03:49:12;;;;;;;33.03;8.70;;;;;;;;;;5058233;28;20044;-63
2023/10/21 03:51:39;;;;;;;35.55;9.60;;;;;;;;;;5063918;28;20484;-63
2023/10/21 03:54:07;;;;;;;34.60;8.90;;;;;;;;;;5058301;28;20067;-63
2023/10/21 03:56:34;;;;;;;32.80;9.15;;;;;;;;;;5057112;28;20404;-63
2023/10/21 03:59:02;;;;;;;33.30;9.18;;;;;;;;;;5056053;28;20052;-62
2023/10/21 04:01:30;;;;;;;69.18;10.43;;;;;;;;;;5057739;28;20049;-62
2023/10/21 04:03:57;;;;;;;41.25;9.05;;;;;;;;;;5059706;28;20417;-62
2023/10/21 04:06:24;;;;;;;59.60;10.07;;;;;;;;;;5055139;28;20077;-63
2023/10/21 04:08:51;;;;;;;80.15;10.18;;;;;;;;;;5056079;28;20047;-64
2023/10/21 04:11:20;;;;;;;36.97;8.88;;;;;;;;;;5060729;28;20538;-63
2023/10/21 04:13:47;;;;;;;57.22;9.30;;;;;;;;;;5061881;28;20045;-63
2023/10/21 04:16:16;;;;;;;57.42;9.90;;;;;;;;;;5064432;28;20484;-63
2023/10/21 04:18:43;;;;;;;32.72;8.85;;;;;;;;;;5063261;28;20056;-64
2023/10/21 04:21:12;;;;;;;32.42;8.20;;;;;;;;;;5064196;28;20059;-64
2023/10/21 04:23:39;;;;;;;41.22;8.65;;;;;;;;;;5058433;28;20048;-63
2023/10/21 04:26:07;;;;;;;79.93;9.93;;;;;;;;;;5058048;28;20407;-63
2023/10/21 04:28:34;;;;;;;31.83;8.05;;;;;;;;;;5060511;28;20076;-62
2023/10/21 04:31:02;;;;;;;29.02;7.72;;;;;;;;;;5059634;28;20106;-65
2023/10/21 04:33:31;;;;;;;56.80;8.63;;;;;;;;;;5055880;28;20053;-64
2023/10/21 04:35:58;;;;;;;35.22;8.40;;;;;;;;;;5060429;28;20411;-63
2023/10/21 04:38:25;;;;;;;32.75;7.70;;;;;;;;;;5053211;28;20057;-62
2023/10/21 04:40:53;;;;;;;25.83;8.20;;;;;;;;;;5055989;28;20036;-62
2023/10/21 04:43:20;;;;;;;33.22;8.00;;;;;;;;;;5058880;28;20053;-62
2023/10/21 04:45:47;;;;;;;29.95;7.90;;;;;;;;;;5059947;28;20052;-63
2023/10/21 04:48:15;;;;;;;29.30;7.80;;;;;;;;;;5057281;28;20044;-63
2023/10/21 04:50:43;;;;;;;50.50;8.45;;;;;;;;;;5061147;28;20083;-63
2023/10/21 04:53:11;;;;;;;41.45;8.95;;;;;;;;;;5057164;28;20499;-63
2023/10/21 04:55:38;;;;;;;79.85;9.27;;;;;;;;;;5062022;28;20466;-62
2023/10/21 04:58:05;;;;;;;45.40;8.15;;;;;;;;;;5054882;28;20045;-63
2023/10/21 05:00:33;;;;;;;54.17;8.10;;;;;;;;;;5060532;28;20057;-62
2023/10/21 05:03:00;;;;;;;34.20;7.40;;;;;;;;;;5056343;28;20056;-62
2023/10/21 05:05:27;;;;;;;38.08;7.93;;;;;;;;;;5061055;28;20123;-65
2023/10/21 05:07:56;;;;;;;29.02;7.22;;;;;;;;;;5059702;28;20041;-62
2023/10/21 05:10:23;;;;;;;84.70;10.02;;;;;;;;;;5060304;28;20049;-63
2023/10/21 05:12:50;;;;;;;39.13;8.68;;;;;;;;;;5066764;28;20058;-62
2023/10/21 05:15:18;;;;;;;96.05;10.25;;;;;;;;;;5065155;28;20053;-63
2023/10/21 05:17:45;;;;;;;57.13;9.02;;;;;;;;;;5067560;28;20053;-63
2023/10/21 05:20:12;;;;;;;128.55;11.80;;;;;;;;;;5064238;28;20130;-63
2023/10/21 05:22:40;;;;;;;38.03;8.57;;;;;;;;;;5065058;28;20049;-65
2023/10/21 05:25:10;;;;;;;36.47;8.00;;;;;;;;;;5064716;28;20049;-63
2023/10/21 05:27:37;;;;;;;112.85;11.07;;;;;;;;;;5064876;28;20048;-63
2023/10/21 05:30:05;;;;;;;66.00;9.73;;;;;;;;;;5063079;28;20052;-63
2023/10/21 05:32:32;;;;;;;67.13;10.75;;;;;;;;;;5062879;28;20064;-63
2023/10/21 05:34:59;;;;;;;54.33;10.77;;;;;;;;;;5064490;28;20488;-63
2023/10/21 05:37:27;;;;;;;39.15;9.57;;;;;;;;;;5067346;28;20056;-63
2023/10/21 05:39:54;;;;;;;43.30;10.60;;;;;;;;;;5061464;28;20081;-63
2023/10/21 05:42:23;;;;;;;66.47;11.90;;;;;;;;;;5067036;28;20491;-63
2023/10/21 05:44:50;;;;;;;42.88;11.45;;;;;;;;;;5059250;28;20048;-63
2023/10/21 05:47:17;;;;;;;56.42;12.82;;;;;;;;;;5059983;28;20078;-62
2023/10/21 05:49:44;;;;;;;54.10;11.63;;;;;;;;;;5059259;28;20430;-62
2023/10/21 05:52:14;;;;;;;55.55;12.52;;;;;;;;;;5059323;28;20590;-65
2023/10/21 05:54:42;;;;;;;91.80;14.73;;;;;;;;;;5061606;28;20132;-63
2023/10/21 05:57:09;;;;;;;102.82;15.32;;;;;;;;;;5064687;28;20072;-63
2023/10/21 05:59:38;;;;;;;124.78;15.55;;;;;;;;;;5061721;28;20124;-62
2023/10/21 06:02:05;;;;;;;90.45;15.25;;;;;;;;;;5060172;28;20508;-63
2023/10/21 06:04:33;;;;;;;103.75;16.40;;;;;;;;;;5062122;28;20056;-63
2023/10/21 06:07:00;;;;;;;51.55;14.48;;;;;;;;;;5063586;28;20060;-62
2023/10/21 06:09:27;;;;;;;137.40;18.13;;;;;;;;;;5062717;28;20381;-63
2023/10/21 06:11:55;;;;;;;113.07;17.30;;;;;;;;;;5062227;28;20048;-63
2023/10/21 06:14:22;;;;;;;149.02;19.30;;;;;;;;;;5059118;28;20048;-63
2023/10/21 06:16:50;;;;;;;119.82;17.95;;;;;;;;;;5062705;28;20414;-62
2023/10/21 06:19:18;;;;;;;118.85;18.30;;;;;;;;;;5059772;28;20404;-63
2023/10/21 06:21:45;;;;;;;76.03;17.13;;;;;;;;;;5066197;28;20534;-63
2023/10/21 06:24:12;;;;;;;142.68;19.92;;;;;;;;;;5066241;28;20051;-63
2023/10/21 06:26:40;;;;;;;88.40;18.25;;;;;;;;;;5062205;28;20059;-63
2023/10/21 06:29:08;;;;;;;101.28;18.58;;;;;;;;;;5062797;28;20078;-63
2023/10/21 06:31:36;;;;;;;73.32;16.63;;;;;;;;;;5058409;28;20064;-65
2023/10/21 06:34:05;;;;;;;79.25;17.80;;;;;;;;;;5061779;28;20057;-63
2023/10/21 06:36:33;;;;;;;65.95;17.27;;;;;;;;;;5057315;28;20060;-62
2023/10/21 06:39:00;;;;;;;88.95;17.90;;;;;;;;;;5058676;28;20056;-63
2023/10/21 06:41:27;;;;;;;75.35;17.85;;;;;;;;;;5062262;28;20053;-64
2023/10/21 06:43:57;;;;;;;81.95;17.75;;;;;;;;;;5055950;28;20055;-64
2023/10/21 06:46:24;;;;;;;86.20;18.33;;;;;;;;;;5059092;28;20084;-64
2023/10/21 06:48:51;;;;;;;68.63;17.33;;;;;;;;;;5058978;28;20388;-63
2023/10/21 06:51:20;;;;;;;63.97;16.50;;;;;;;;;;5064077;28;20506;-63
2023/10/21 06:53:47;;;;;;;129.75;19.27;;;;;;;;;;5059036;28;20049;-63
2023/10/21 06:56:14;;;;;;;75.40;17.20;;;;;;;;;;5065466;28;20431;-63
2023/10/21 06:58:47;;;;;;;61.30;16.58;;;;;;;;;;5061437;28;20045;-63
2023/10/21 07:01:14;;;;;;;63.47;17.55;;;;;;;;;;5060789;28;20132;-63
2023/10/21 07:03:41;;;;;;;74.10;17.77;;;;;;;;;;5059964;28;20060;-63
2023/10/21 07:06:08;;;;;;;105.00;18.98;;;;;;;;;;5067155;28;20084;-62
2023/10/21 07:08:37;;;;;;;64.32;16.95;;;;;;;;;;5056781;28;20830;-63
2023/10/21 07:11:04;;;;;;;96.60;17.73;;;;;;;;;;5064169;28;20052;-63
2023/10/21 07:13:32;;;;;;;60.90;17.42;;;;;;;;;;5054555;28;20411;-63
2023/10/21 07:16:06;;;;;;;71.60;17.08;;;;;;;;;;5059695;28;20083;-63
2023/10/21 07:18:33;;;;;;;59.10;16.52;;;;;;;;;;5056997;28;20515;-63
2023/10/21 07:21:01;;;;;;;74.10;16.50;;;;;;;;;;5057107;28;20495;-63
2023/10/21 07:23:28;;;;;;;104.60;19.30;;;;;;;;;;5055854;28;20048;-64
2023/10/21 07:25:57;;;;;;;78.05;17.92;;;;;;;;;;5055015;28;20057;-63
2023/10/21 07:28:24;;;;;;;93.38;17.45;;;;;;;;;;5057435;28;20045;-63
2023/10/21 07:30:53;;;;;;;64.30;16.73;;;;;;;;;;5059023;28;20132;-63
2023/10/21 07:33:21;;;;;;;60.92;16.10;;;;;;;;;;5057929;28;20049;-63
2023/10/21 07:35:51;;;;;;;56.65;15.73;;;;;;;;;;5058910;28;20052;-62
2023/10/21 07:38:18;;;;;;;59.72;16.55;;;;;;;;;;5057215;28;20094;-64
2023/10/21 07:40:46;;;;;;;50.35;15.10;;;;;;;;;;5056052;28;20045;-64
2023/10/21 07:43:16;;;;;;;55.72;15.25;;;;;;;;;;5060885;28;20111;-66
2023/10/21 07:45:43;;;;;;;97.28;17.70;;;;;;;;;;5061872;28;20048;-64
2023/10/21 07:48:10;;;;;;;59.30;16.52;;;;;;;;;;5060167;28;20166;-64
2023/10/21 07:50:38;;;;;;;56.80;14.75;;;;;;;;;;5060230;28;20051;-63
2023/10/21 07:53:06;;;;;;;54.97;15.45;;;;;;;;;;5054799;28;20057;-63
2023/10/21 07:55:34;;;;;;;50.65;14.27;;;;;;;;;;5062238;28;20169;-64
2023/10/21 07:58:02;;;;;;;55.15;15.10;;;;;;;;;;5052449;28;20049;-63
2023/10/21 08:00:31;;;;;;;49.97;14.23;;;;;;;;;;5059834;28;20060;-64
2023/10/21 08:02:59;;;;;;;46.67;14.40;;;;;;;;;;5052384;28;20404;-64
2023/10/21 08:05:28;;;;;;;48.50;14.05;;;;;;;;;;5055457;28;20060;-63
2023/10/21 08:07:57;;;;;;;45.67;14.38;;;;;;;;;;5056838;28;20408;-62
2023/10/21 08:10:24;;;;;;;44.30;13.60;;;;;;;;;;5052151;28;20053;-63
2023/10/21 08:12:51;;;;;;;45.92;13.05;;;;;;;;;;5059175;28;20136;-62
2023/10/21 08:15:18;;;;;;;53.42;15.77;;;;;;;;;;5061633;28;20506;-63
2023/10/21 08:17:47;;;;;;;49.38;14.63;;;;;;;;;;5056696;28;20044;-62
2023/10/21 08:20:15;;;;;;;45.33;13.95;;;;;;;;;;5059835;28;20065;-63
2023/10/21 08:22:42;;;;;;;52.10;15.18;;;;;;;;;;5056181;28;20056;-63
2023/10/21 08:25:10;;;;;;;47.33;15.10;;;;;;;;;;5057022;28;20049;-62
2023/10/21 08:27:37;;;;;;;48.92;13.90;;;;;;;;;;5058135;28;20052;-62
2023/10/21 08:30:04;;;;;;;53.38;16.05;;;;;;;;;;5058127;28;20048;-61
2023/10/21 08:32:32;;;;;;;48.35;15.32;;;;;;;;;;5059510;28;20052;-62
2023/10/21 08:35:00;;;;;;;49.00;15.88;;;;;;;;;;5055014;28;20051;-62
2023/10/21 08:37:28;;;;;;;53.38;16.85;;;;;;;;;;5055398;28;20395;-63
2023/10/21 08:39:56;;;;;;;53.80;16.92;;;;;;;;;;5062368;28;20045;-63
2023/10/21 08:42:26;;;;;;;51.05;15.98;;;;;;;;;;5056020;28;20066;-62
2023/10/21 08:44:54;;;;;;;44.90;14.45;;;;;;;;;;5053234;28;20492;-63
2023/10/21 08:47:23;;;;;;;41.70;14.75;;;;;;;;;;5056770;28;20052;-61
2023/10/21 08:49:50;;;;;;;45.65;15.48;;;;;;;;;;5054950;28;20041;-62
2023/10/21 08:52:19;;;;;;;48.10;15.63;;;;;;;;;;5057571;28;20790;-63
2023/10/21 08:54:47;;;;;;;42.78;14.43;;;;;;;;;;5056476;28;20052;-66
2023/10/21 08:57:14;;;;;;;42.83;15.00;;;;;;;;;;5057640;28;20095;-62
2023/10/21 08:59:42;;;;;;;41.20;14.93;;;;;;;;;;5057867;28;20057;-63
2023/10/21 09:02:09;;;;;;;45.60;14.85;;;;;;;;;;5060784;28;20048;-60
2023/10/21 09:04:37;;;;;;;46.83;14.88;;;;;;;;;;5054855;28;20053;-60
2023/10/21 09:07:05;;;;;;;42.60;13.35;;;;;;;;;;5057725;28;20088;-64
2023/10/21 09:09:34;;;;;;;46.47;14.68;;;;;;;;;;5057900;28;20088;-60
2023/10/21 09:12:05;;;;;;;33.22;12.95;;;;;;;;;;5056948;28;20052;-60
2023/10/21 09:14:32;;;;;;;45.78;13.13;;;;;;;;;;5053744;28;20048;-60
2023/10/21 09:17:00;;;;;;;31.55;11.80;;;;;;;;;;5054981;28;20049;-61
2023/10/21 09:19:27;;;;;;;35.15;12.63;;;;;;;;;;5060891;28;20049;-61
2023/10/21 09:21:55;;;;;;;30.10;11.48;;;;;;;;;;5058082;28;20045;-60
2023/10/21 09:24:23;;;;;;;31.00;11.27;;;;;;;;;;5062194;28;20458;-61
2023/10/21 09:26:52;;;;;;;27.70;10.88;;;;;;;;;;5063637;28;20554;-63
2023/10/21 09:29:20;;;;;;;29.88;10.52;;;;;;;;;;5055828;28;20392;-60
2023/10/21 09:31:51;;;;;;;24.42;10.85;;;;;;;;;;5057230;28;20052;-61
2023/10/21 09:34:25;;;;;;;30.45;9.80;;;;;;;;;;5064784;28;21367;-60
2023/10/21 09:36:54;;;;;;;27.25;9.82;;;;;;;;;;5058456;28;20084;-62
2023/10/21 09:39:22;;;;;;;26.73;9.43;;;;;;;;;;5058763;28;20557;-65
2023/10/21 09:41:49;;;;;;;19.90;8.43;;;;;;;;;;5061087;28;20045;-60
2023/10/21 09:44:18;;;;;;;29.80;8.60;;;;;;;;;;5059634;28;20490;-63
2023/10/21 09:46:46;;;;;;;25.33;7.43;;;;;;;;;;5052820;28;20045;-60
2023/10/21 09:49:13;;;;;;;15.48;7.00;;;;;;;;;;5060750;28;20399;-64
2023/10/21 09:51:47;;;;;;;15.98;7.22;;;;;;;;;;5059999;28;20546;-60
2023/10/21 09:54:16;;;;;;;15.98;7.07;;;;;;;;;;5066452;28;20131;-60
2023/10/21 09:56:44;;;;;;;19.77;7.78;;;;;;;;;;5062201;28;20091;-60
2023/10/21 09:59:12;;;;;;;16.10;7.40;;;;;;;;;;5066499;28;20258;-64
2023/10/21 10:01:41;;;;;;;16.33;6.50;;;;;;;;;;5060179;28;20574;-60
2023/10/21 10:04:09;;;;;;;14.65;6.90;;;;;;;;;;5061017;28;20516;-60
2023/10/21 10:06:39;;;;;;;16.27;6.30;;;;;;;;;;5066089;28;20069;-60
2023/10/21 10:09:07;;;;;;;9.02;5.03;;;;;;;;;;5060252;28;20500;-60
2023/10/21 10:11:35;;;;;;;18.60;5.40;;;;;;;;;;5066605;28;20480;-60
2023/10/21 10:14:04;;;;;;;8.10;5.13;;;;;;;;;;5061283;28;20060;-61
2023/10/21 10:16:32;;;;;;;9.02;4.80;;;;;;;;;;5062520;28;20051;-60
2023/10/21 10:19:00;;;;;;;17.35;5.00;;;;;;;;;;5058419;28;20053;-60
2023/10/21 10:21:32;;;;;;;11.48;4.32;;;;;;;;;;5057804;28;20047;-63
2023/10/21 10:23:59;;;;;;;9.70;4.30;;;;;;;;;;5056818;28;20496;-60
2023/10/21 10:26:34;;;;;;;12.65;4.75;;;;;;;;;;5061842;28;20396;-60
2023/10/21 10:29:01;;;;;;;12.02;4.90;;;;;;;;;;5061131;28;20044;-60
2023/10/21 10:31:29;;;;;;;14.45;4.53;;;;;;;;;;5065407;28;20040;-63
2023/10/21 10:33:56;;;;;;;8.27;4.32;;;;;;;;;;5056161;28;20495;-60
2023/10/21 10:36:32;;;;;;;10.75;3.97;;;;;;;;;;5056725;28;20052;-63
2023/10/21 10:38:59;;;;;;;9.32;4.15;;;;;;;;;;5054488;28;20118;-61
2023/10/21 10:41:27;;;;;;;8.25;3.75;;;;;;;;;;5053130;28;20041;-60
2023/10/21 10:43:59;;;;;;;7.05;3.58;;;;;;;;;;5057471;28;20048;-61
2023/10/21 10:46:28;;;;;;;8.15;3.40;;;;;;;;;;5057226;28;20041;-62
2023/10/21 10:48:57;;;;;;;11.95;3.40;;;;;;;;;;5059944;28;20094;-60
2023/10/21 10:51:27;;;;;;;6.93;3.60;;;;;;;;;;5059739;28;20377;-61
2023/10/21 10:53:56;;;;;;;6.75;3.60;;;;;;;;;;5063261;28;20107;-63
2023/10/21 10:56:25;;;;;;;9.70;3.38;;;;;;;;;;5054661;28;20041;-61
2023/10/21 10:58:53;;;;;;;7.13;3.50;;;;;;;;;;5057156;28;20473;-62
2023/10/21 11:01:25;;;;;;;4.88;2.90;;;;;;;;;;5063167;28;20419;-60
2023/10/21 11:03:56;;;;;;;9.90;2.90;;;;;;;;;;5056261;28;20415;-61
2023/10/21 11:06:26;;;;;;;5.05;2.60;;;;;;;;;;5058744;28;20045;-60
2023/10/21 11:08:53;;;;;;;5.70;2.47;;;;;;;;;;5056913;28;20526;-62
2023/10/21 11:11:22;;;;;;;6.93;2.60;;;;;;;;;;5061782;28;20049;-61
2023/10/21 11:13:49;;;;;;;7.30;3.10;;;;;;;;;;5058545;28;20059;-60
2023/10/21 11:16:18;;;;;;;5.57;2.47;;;;;;;;;;5059393;28;20531;-62
2023/10/21 11:18:45;;;;;;;4.85;2.40;;;;;;;;;;5063068;28;20045;-60
2023/10/21 11:21:12;;;;;;;6.80;2.47;;;;;;;;;;5060375;28;20049;-62
2023/10/21 11:23:39;;;;;;;5.68;2.40;;;;;;;;;;5057357;28;20705;-61
2023/10/21 11:26:08;;;;;;;7.03;2.50;;;;;;;;;;5060911;28;20056;-61
2023/10/21 11:28:39;;;;;;;4.72;2.30;;;;;;;;;;5063710;28;20048;-60
2023/10/21 11:31:08;;;;;;;3.65;2.17;;;;;;;;;;5060877;28;20049;-61
2023/10/21 11:33:35;;;;;;;4.47;2.10;;;;;;;;;;5060972;28;20056;-61
2023/10/21 11:36:03;;;;;;;4.38;2.00;;;;;;;;;;5061217;28;21182;-62
2023/10/21 11:38:30;;;;;;;2.13;1.40;;;;;;;;;;5056366;28;20044;-60
2023/10/21 11:40:59;;;;;;;1.45;1.00;;;;;;;;;;5061906;28;20460;-60
2023/10/21 11:43:28;;;;;;;2.03;1.10;;;;;;;;;;5055500;28;20044;-61
2023/10/21 11:45:57;;;;;;;2.65;0.80;;;;;;;;;;5060533;28;20072;-61
2023/10/21 11:48:27;;;;;;;1.02;0.88;;;;;;;;;;5064671;28;20048;-61
2023/10/21 11:50:55;;;;;;;1.58;0.77;;;;;;;;;;5062598;28;20055;-61
2023/10/21 11:53:22;;;;;;;4.03;1.05;;;;;;;;;;5064457;28;20102;-61
2023/10/21 12:15:45;;;;;;;2.70;0.60;;;;;;;;;;5061900;28;20506;-67
2023/10/21 12:18:34;;;;;;;3.53;0.50;;;;;;;;;;5059043;28;20094;-67
2023/10/21 12:21:42;;;;;;;2.75;0.63;;;;;;;;;;5056996;28;20056;-63
2023/10/21 12:27:04;;;;;;;1.42;0.93;;;;;;;;;;5060593;28;20550;-64
2023/10/21 12:32:44;;;;;;;0.40;0.40;;;;;;;;;;5053204;28;20052;-64
2023/10/21 12:35:36;;;;;;;1.60;0.50;;;;;;;;;;5057133;28;20102;-64
2023/10/21 12:38:23;;;;;;;2.05;0.65;;;;;;;;;;5054008;28;20057;-63
2023/10/21 12:43:35;;;;;;;5.28;0.60;;;;;;;;;;5051209;28;20044;-65
2023/10/21 12:46:14;;;;;;;3.85;0.40;;;;;;;;;;5062245;28;20063;-63
2023/10/21 12:48:41;;;;;;;3.40;0.57;;;;;;;;;;5059444;28;20131;-63
2023/10/21 12:51:14;;;;;;;2.35;0.50;;;;;;;;;;5054929;28;20045;-64
2023/10/21 12:53:42;;;;;;;1.27;0.40;;;;;;;;;;5059699;28;20048;-64
2023/10/21 12:56:09;;;;;;;2.97;0.47;;;;;;;;;;5059433;28;20045;-63
2023/10/21 12:58:39;;;;;;;2.17;0.50;;;;;;;;;;5053215;28;20049;-64
2023/10/21 13:01:09;;;;;;;1.60;0.40;;;;;;;;;;5058273;28;20048;-64
2023/10/21 13:03:37;;;;;;;4.30;0.55;;;;;;;;;;5056408;28;20057;-64
2023/10/21 13:06:05;;;;;;;3.08;0.50;;;;;;;;;;5054178;28;20057;-64
2023/10/21 13:08:35;;;;;;;1.23;0.52;;;;;;;;;;5062977;28;20060;-64
2023/10/21 13:11:02;;;;;;;2.05;0.43;;;;;;;;;;5057800;28;20520;-67
2023/10/21 13:13:34;;;;;;;1.70;0.57;;;;;;;;;;5051789;28;20048;-64
2023/10/21 13:16:01;;;;;;;1.67;0.60;;;;;;;;;;5054923;28;20497;-63
2023/10/21 13:18:28;;;;;;;1.77;0.50;;;;;;;;;;5058883;28;20048;-64
2023/10/21 13:20:56;;;;;;;2.70;0.55;;;;;;;;;;5060914;28;20045;-64
2023/10/21 13:23:25;;;;;;;0.40;0.30;;;;;;;;;;5058779;28;21130;-63
2023/10/21 13:25:54;;;;;;;2.05;0.60;;;;;;;;;;5063713;28;20127;-63
2023/10/21 13:28:21;;;;;;;1.23;0.52;;;;;;;;;;5061083;28;20055;-64
2023/10/21 13:30:49;;;;;;;1.33;0.60;;;;;;;;;;5065120;28;20048;-66
2023/10/21 13:33:17;;;;;;;2.72;0.80;;;;;;;;;;5057671;28;20052;-64
2023/10/21 13:35:44;;;;;;;3.83;0.63;;;;;;;;;;5059730;28;20515;-64
2023/10/21 13:38:12;;;;;;;1.58;0.50;;;;;;;;;;5061020;28;20056;-63
2023/10/21 13:40:40;;;;;;;4.10;0.55;;;;;;;;;;5054724;28;20472;-64
2023/10/21 13:43:10;;;;;;;2.72;0.63;;;;;;;;;;5060541;28;20048;-65
2023/10/21 13:45:37;;;;;;;1.95;0.45;;;;;;;;;;5056954;28;20135;-65
2023/10/21 13:48:08;;;;;;;2.92;0.52;;;;;;;;;;5059245;28;20055;-63
2023/10/21 13:50:37;;;;;;;1.27;0.40;;;;;;;;;;5057544;28;20049;-64
2023/10/21 13:53:11;;;;;;;3.35;0.40;;;;;;;;;;5067058;28;20051;-63
2023/10/21 13:55:38;;;;;;;4.43;0.50;;;;;;;;;;5061291;28;20056;-63
2023/10/21 13:58:06;;;;;;;1.25;0.40;;;;;;;;;;5058242;28;20561;-63
2023/10/21 14:00:34;;;;;;;2.90;0.60;;;;;;;;;;5061424;28;20059;-63
2023/10/21 14:03:08;;;;;;;1.52;0.40;;;;;;;;;;5061852;28;20056;-65
2023/10/21 14:05:36;;;;;;;1.75;0.40;;;;;;;;;;5059591;28;20058;-65
2023/10/21 14:08:04;;;;;;;2.28;0.47;;;;;;;;;;5061078;28;20056;-64
2023/10/21 14:10:36;;;;;;;1.05;0.50;;;;;;;;;;5060116;28;20052;-64
2023/10/21 14:13:04;;;;;;;4.75;0.60;;;;;;;;;;5061457;28;20384;-64
2023/10/21 14:15:32;;;;;;;1.38;0.40;;;;;;;;;;5064948;28;20057;-64
2023/10/21 14:18:01;;;;;;;3.15;0.50;;;;;;;;;;5061240;28;20048;-65
2023/10/21 14:20:28;;;;;;;3.90;0.60;;;;;;;;;;5056925;28;20048;-64
2023/10/21 14:22:55;;;;;;;1.65;0.57;;;;;;;;;;5059457;28;20056;-64
2023/10/21 14:25:23;;;;;;;3.50;0.57;;;;;;;;;;5055794;28;20052;-64
2023/10/21 14:27:50;;;;;;;6.22;0.43;;;;;;;;;;5062561;28;20114;-65
2023/10/21 14:30:19;;;;;;;2.45;0.63;;;;;;;;;;5056614;28;20056;-64
2023/10/21 14:32:48;;;;;;;2.15;0.50;;;;;;;;;;5059123;28;20484;-63
2023/10/21 14:35:16;;;;;;;4.15;0.70;;;;;;;;;;5055388;28;20519;-64
2023/10/21 14:37:43;;;;;;;6.75;0.65;;;;;;;;;;5062751;28;20395;-64
2023/10/21 14:40:11;;;;;;;3.70;0.57;;;;;;;;;;5063336;28;20055;-63
2023/10/21 14:42:39;;;;;;;1.95;0.50;;;;;;;;;;5058921;28;20048;-64
2023/10/21 14:45:08;;;;;;;3.83;0.50;;;;;;;;;;5056661;28;20484;-67
2023/10/21 14:47:35;;;;;;;3.90;0.63;;;;;;;;;;5067159;28;20488;-64
2023/10/21 14:50:05;;;;;;;2.78;0.47;;;;;;;;;;5061373;28;21433;-63
2023/10/21 14:52:34;;;;;;;1.90;0.60;;;;;;;;;;5053634;28;20558;-64
2023/10/21 14:55:01;;;;;;;3.17;0.70;;;;;;;;;;5064795;28;20057;-64
2023/10/21 14:57:29;;;;;;;2.42;0.73;;;;;;;;;;5063440;28;20040;-64
2023/10/21 14:59:57;;;;;;;2.70;0.73;;;;;;;;;;5060946;28;20044;-64